createdAt,value
2022-09-23T00:00:24.548Z,1.00
2022-09-23T00:02:54.295Z,1.00
2022-09-23T00:05:26.688Z,1.00
2022-09-23T00:07:56.783Z,1.00
2022-09-23T00:10:28.481Z,1.00
2022-09-23T00:12:58.528Z,1.00
2022-09-23T00:15:31.053Z,1.00
2022-09-23T00:18:00.881Z,1.00
2022-09-23T00:20:33.284Z,1.00
2022-09-23T00:23:02.997Z,1.00
2022-09-23T00:25:32.786Z,1.00
2022-09-23T00:28:03.245Z,1.00
2022-09-23T00:30:33.105Z,1.00
2022-09-23T00:33:02.877Z,1.00
2022-09-23T00:35:35.203Z,1.30
2022-09-23T00:38:04.951Z,1.70
2022-09-23T00:40:36.310Z,2.60
2022-09-23T00:43:06.210Z,3.10
2022-09-23T00:45:36.542Z,3.70
2022-09-23T00:48:06.881Z,3.90
2022-09-23T00:50:43.576Z,3.40
2022-09-23T00:53:16.421Z,3.60
2022-09-23T00:55:51.510Z,3.70
2022-09-23T00:58:28.005Z,3.90
2022-09-23T01:01:00.091Z,4.30
2022-09-23T01:03:30.153Z,4.90
2022-09-23T01:06:02.833Z,5.70
2022-09-23T01:08:32.761Z,6.90
2022-09-23T01:11:14.383Z,7.50
2022-09-23T01:13:54.731Z,7.40
2022-09-23T01:16:33.430Z,7.80
2022-09-23T01:19:09.338Z,8.50
2022-09-23T01:21:49.831Z,9.50
2022-09-23T01:24:40.408Z,9.90
2022-09-23T01:27:35.426Z,10.80
2022-09-23T01:30:21.413Z,10.90
2022-09-23T01:33:10.828Z,10.20
2022-09-23T01:36:01.480Z,11.00
2022-09-23T01:38:40.240Z,11.10
2022-09-23T01:41:19.748Z,11.20
2022-09-23T01:43:55.837Z,11.30
2022-09-23T01:46:30.576Z,12.20
2022-09-23T01:49:10.539Z,12.70
2022-09-23T01:51:44.762Z,13.10
2022-09-23T01:54:18.604Z,13.30
2022-09-23T01:56:54.158Z,13.70
2022-09-23T01:59:29.024Z,14.50
2022-09-23T02:02:04.226Z,14.60
2022-09-23T02:04:45.084Z,15.10
2022-09-23T02:07:20.544Z,15.40
2022-09-23T02:09:57.225Z,15.70
2022-09-23T02:12:30.279Z,16.20
2022-09-23T02:15:05.274Z,16.40
2022-09-23T02:17:39.668Z,17.30
2022-09-23T02:20:15.837Z,17.90
2022-09-23T02:22:54.962Z,18.40
2022-09-23T02:25:28.594Z,18.90
2022-09-23T02:28:04.254Z,19.30
2022-09-23T02:30:39.499Z,19.30
2022-09-23T02:33:13.720Z,19.10
2022-09-23T02:35:55.262Z,19.00
2022-09-23T02:38:33.820Z,19.00
2022-09-23T02:41:10.193Z,18.90
2022-09-23T02:43:45.890Z,18.40
2022-09-23T02:46:15.993Z,18.70
2022-09-23T02:48:49.017Z,18.30
2022-09-23T02:51:21.459Z,18.00
2022-09-23T02:53:52.083Z,17.90
2022-09-23T02:56:23.151Z,17.10
2022-09-23T02:58:55.522Z,16.10
2022-09-23T03:01:39.243Z,16.20
2022-09-23T03:04:16.149Z,16.60
2022-09-23T03:07:00.793Z,14.40
2022-09-23T03:09:35.039Z,14.00
2022-09-23T03:12:14.332Z,14.40
2022-09-23T03:14:53.559Z,14.40
2022-09-23T03:17:29.839Z,14.40
2022-09-23T03:20:04.469Z,14.40
2022-09-23T03:22:39.422Z,13.60
2022-09-23T03:25:14.041Z,13.70
2022-09-23T03:27:45.604Z,13.40
2022-09-23T03:30:16.737Z,13.00
2022-09-23T03:32:49.773Z,13.90
2022-09-23T03:35:20.258Z,13.90
2022-09-23T03:37:58.182Z,14.30
2022-09-23T03:40:32.671Z,14.60
2022-09-23T03:43:04.467Z,14.30
2022-09-23T03:45:36.595Z,14.30
2022-09-23T03:48:07.167Z,14.20
2022-09-23T03:50:37.287Z,14.30
2022-09-23T03:53:09.621Z,15.20
2022-09-23T03:55:40.586Z,15.10
2022-09-23T03:58:11.263Z,14.80
2022-09-23T04:00:41.179Z,15.30
2022-09-23T04:03:11.921Z,14.70
2022-09-23T04:05:43.020Z,14.90
2022-09-23T04:08:15.315Z,14.80
2022-09-23T04:10:46.858Z,14.60
2022-09-23T04:13:17.181Z,14.80
2022-09-23T04:15:46.897Z,14.70
2022-09-23T04:18:16.604Z,14.20
2022-09-23T04:20:46.386Z,14.20
2022-09-23T04:23:18.696Z,14.20
2022-09-23T04:25:48.807Z,14.30
2022-09-23T04:28:18.637Z,14.90
2022-09-23T04:30:49.053Z,15.00
2022-09-23T04:33:19.371Z,14.70
2022-09-23T04:35:53.319Z,14.20
2022-09-23T04:38:25.662Z,14.10
2022-09-23T04:40:55.502Z,14.10
2022-09-23T04:43:25.768Z,14.60
2022-09-23T04:46:03.147Z,14.20
2022-09-23T04:48:33.330Z,14.10
2022-09-23T04:51:06.151Z,14.10
2022-09-23T04:53:39.492Z,15.10
2022-09-23T04:56:12.226Z,15.50
2022-09-23T04:58:43.301Z,14.60
2022-09-23T05:01:14.691Z,14.40
2022-09-23T05:03:45.784Z,14.10
2022-09-23T05:06:17.276Z,14.10
2022-09-23T05:08:54.303Z,14.10
2022-09-23T05:11:25.440Z,14.40
2022-09-23T05:13:57.022Z,15.20
2022-09-23T05:16:27.540Z,15.50
2022-09-23T05:18:58.083Z,16.00
2022-09-23T05:21:30.235Z,16.00
2022-09-23T05:24:02.820Z,15.80
2022-09-23T05:26:34.381Z,16.10
2022-09-23T05:29:04.127Z,16.10
2022-09-23T05:31:34.242Z,15.80
2022-09-23T05:34:05.582Z,15.60
2022-09-23T05:36:38.766Z,14.90
2022-09-23T05:39:11.634Z,14.80
2022-09-23T05:41:43.449Z,14.60
2022-09-23T05:44:13.182Z,14.30
2022-09-23T05:46:43.003Z,13.40
2022-09-23T05:49:12.801Z,12.70
2022-09-23T05:51:42.569Z,12.60
2022-09-23T05:54:14.989Z,11.90
2022-09-23T05:56:45.279Z,11.90
2022-09-23T05:59:15.032Z,11.20
2022-09-23T06:01:46.493Z,9.10
2022-09-23T06:04:17.099Z,7.60
2022-09-23T06:06:46.869Z,7.60
2022-09-23T06:09:21.592Z,6.90
2022-09-23T06:11:51.337Z,6.70
2022-09-23T06:14:21.414Z,5.30
2022-09-23T06:16:51.158Z,3.90
2022-09-23T06:19:22.471Z,3.80
2022-09-23T06:21:52.393Z,1.90
2022-09-23T06:24:30.201Z,1.00
2022-09-23T06:27:01.024Z,1.00
2022-09-23T06:29:32.088Z,1.00
2022-09-23T06:32:02.241Z,1.00
2022-09-23T06:34:41.858Z,1.00
2022-09-23T06:37:19.985Z,1.00
2022-09-23T06:39:54.823Z,1.00
2022-09-23T06:42:24.561Z,1.00
2022-09-23T06:44:54.304Z,1.00
2022-09-23T06:47:24.012Z,1.00
2022-09-23T06:49:53.781Z,1.00
2022-09-23T06:52:23.760Z,1.00
2022-09-23T06:54:56.834Z,1.00
2022-09-23T06:57:27.038Z,1.00
2022-09-23T06:59:58.405Z,1.00
2022-09-23T07:02:28.445Z,1.00
2022-09-23T07:04:58.644Z,1.00
2022-09-23T07:07:29.439Z,1.00
2022-09-23T07:10:01.770Z,1.00
2022-09-23T07:12:31.546Z,1.00
2022-09-23T07:15:01.326Z,1.00
2022-09-23T07:17:31.119Z,1.00
2022-09-23T07:20:00.886Z,1.00
2022-09-23T07:22:30.662Z,1.00
2022-09-23T07:25:02.945Z,1.00
2022-09-23T07:27:33.415Z,1.00
2022-09-23T07:30:03.176Z,1.00
2022-09-23T07:32:43.505Z,1.00
2022-09-23T07:35:14.413Z,1.00
2022-09-23T07:37:45.028Z,1.00
2022-09-23T07:40:17.420Z,1.00
2022-09-23T07:42:47.905Z,1.00
2022-09-23T07:45:18.204Z,1.00
2022-09-23T07:47:48.877Z,1.00
2022-09-23T07:50:19.074Z,1.00
2022-09-23T07:52:49.182Z,1.00
2022-09-23T07:55:22.358Z,1.00
2022-09-23T07:57:52.226Z,1.00
2022-09-23T08:00:22.089Z,1.00
2022-09-23T08:02:53.083Z,1.00
2022-09-23T08:05:23.043Z,1.00
2022-09-23T08:07:52.788Z,1.00
2022-09-23T08:10:31.042Z,1.00
2022-09-23T08:13:02.315Z,1.00
2022-09-23T08:15:32.725Z,1.00
2022-09-23T08:18:03.122Z,1.00
2022-09-23T08:20:48.311Z,1.00
2022-09-23T08:23:21.044Z,1.00
2022-09-23T08:26:00.114Z,1.00
2022-09-23T08:28:33.827Z,1.00
2022-09-23T08:31:03.897Z,1.00
2022-09-23T08:33:34.023Z,1.00
2022-09-23T08:36:05.230Z,1.00
2022-09-23T08:38:35.211Z,1.00
2022-09-23T08:41:16.296Z,1.00
2022-09-23T08:43:51.274Z,1.00
2022-09-23T08:46:26.098Z,1.00
2022-09-23T08:48:57.714Z,1.00
2022-09-23T08:51:34.129Z,1.00
2022-09-23T08:54:04.563Z,1.00
2022-09-23T08:56:39.955Z,1.00
2022-09-23T08:59:14.796Z,1.00
2022-09-23T09:01:47.810Z,1.00
2022-09-23T09:04:20.845Z,1.00
2022-09-23T09:07:03.393Z,1.00
2022-09-23T09:09:47.513Z,1.00
2022-09-23T09:12:21.979Z,1.00
2022-09-23T09:14:59.776Z,1.00
2022-09-23T09:17:38.317Z,1.00
2022-09-23T09:20:23.210Z,1.00
2022-09-23T09:23:00.118Z,1.00
2022-09-23T09:25:42.609Z,1.00
2022-09-23T09:28:22.785Z,1.00
2022-09-23T09:30:58.736Z,1.00
2022-09-23T09:33:33.920Z,1.00
2022-09-23T09:36:12.879Z,1.00
2022-09-23T09:38:42.583Z,1.00
2022-09-23T09:41:17.843Z,1.00
2022-09-23T09:43:53.432Z,1.00
2022-09-23T09:46:48.237Z,1.00
2022-09-23T09:49:28.498Z,1.00
2022-09-23T09:52:22.900Z,1.00
2022-09-23T09:54:55.815Z,1.00
2022-09-23T09:57:39.551Z,1.00
2022-09-23T10:00:36.661Z,1.00
2022-09-23T10:03:22.746Z,1.00
2022-09-23T10:05:57.349Z,1.00
2022-09-23T10:08:31.865Z,1.00
2022-09-23T10:11:08.096Z,1.00
2022-09-23T10:13:37.953Z,1.00
2022-09-23T10:16:11.645Z,1.00
2022-09-23T10:18:53.442Z,1.00
2022-09-23T10:21:27.961Z,1.00
2022-09-23T10:24:01.585Z,1.00
2022-09-23T10:26:33.829Z,1.00
2022-09-23T10:29:05.840Z,1.00
2022-09-23T10:31:38.824Z,1.00
2022-09-23T10:34:25.838Z,1.00
2022-09-23T10:36:58.308Z,1.00
2022-09-23T10:39:40.593Z,1.00
2022-09-23T10:42:36.712Z,1.00
2022-09-23T10:45:33.060Z,1.00
2022-09-23T10:48:13.016Z,1.00
2022-09-23T10:50:47.532Z,1.00
2022-09-23T10:53:22.879Z,1.00
2022-09-23T10:56:12.460Z,1.00
2022-09-23T10:59:19.447Z,1.00
2022-09-23T11:02:02.089Z,1.00
2022-09-23T11:05:04.780Z,1.00
2022-09-23T11:07:44.372Z,1.00
2022-09-23T11:10:50.542Z,1.00
2022-09-23T11:13:29.061Z,1.00
2022-09-23T11:16:05.473Z,1.00
2022-09-23T11:18:51.882Z,1.00
2022-09-23T11:21:52.878Z,1.00
2022-09-23T11:25:01.667Z,1.00
2022-09-23T11:27:45.768Z,1.00
2022-09-23T11:30:17.384Z,1.00
2022-09-23T11:33:14.123Z,1.00
2022-09-23T11:35:50.352Z,1.00
2022-09-23T11:38:25.895Z,1.00
2022-09-23T11:41:02.451Z,1.00
2022-09-23T11:43:38.505Z,1.00
2022-09-23T11:46:14.471Z,1.00
2022-09-23T11:48:49.061Z,1.00
2022-09-23T11:51:27.047Z,1.00
2022-09-23T11:54:01.903Z,1.00
2022-09-23T11:56:42.930Z,1.00
2022-09-23T11:59:31.485Z,1.00
2022-09-23T12:02:20.829Z,1.00
2022-09-23T12:05:01.444Z,1.00
2022-09-23T12:07:43.502Z,1.00
2022-09-23T12:10:14.073Z,1.00
2022-09-23T12:12:56.805Z,1.00
2022-09-23T12:15:39.479Z,1.00
2022-09-23T12:18:35.694Z,1.00
2022-09-23T12:21:49.088Z,1.00
2022-09-23T12:24:40.095Z,1.00
2022-09-23T12:27:14.318Z,1.00
2022-09-23T12:29:47.085Z,1.00
2022-09-23T12:32:21.221Z,1.00
2022-09-23T12:34:52.923Z,1.00
2022-09-23T12:37:28.881Z,1.00
2022-09-23T12:40:04.915Z,1.00
2022-09-23T12:42:35.002Z,1.00
2022-09-23T12:45:35.170Z,1.00
2022-09-23T12:48:29.027Z,1.00
2022-09-23T12:51:09.124Z,1.00
2022-09-23T12:54:16.869Z,1.00
2022-09-23T12:57:05.039Z,1.00
2022-09-23T12:59:50.807Z,1.00
2022-09-23T13:02:31.229Z,1.00
2022-09-23T13:05:34.209Z,1.00
2022-09-23T13:08:10.174Z,1.00
2022-09-23T13:10:46.115Z,1.00
2022-09-23T13:13:24.779Z,1.00
2022-09-23T13:15:55.918Z,1.00
2022-09-23T13:18:27.836Z,1.00
2022-09-23T13:21:00.144Z,1.00
2022-09-23T13:23:31.302Z,1.00
2022-09-23T13:26:04.487Z,1.00
2022-09-23T13:28:37.171Z,1.00
2022-09-23T13:31:09.197Z,1.00
2022-09-23T13:33:45.241Z,1.00
2022-09-23T13:36:19.613Z,1.00
2022-09-23T13:38:49.912Z,1.00
2022-09-23T13:41:22.518Z,1.00
2022-09-23T13:43:58.768Z,1.00
2022-09-23T13:46:31.346Z,1.00
2022-09-23T13:49:02.769Z,1.00
2022-09-23T13:51:37.520Z,1.00
2022-09-23T13:54:08.174Z,1.00
2022-09-23T13:56:37.979Z,1.00
2022-09-23T13:59:26.216Z,1.00
2022-09-23T14:02:06.021Z,1.00
2022-09-23T14:04:36.092Z,1.00
2022-09-23T14:07:10.722Z,1.00
2022-09-23T14:09:44.105Z,1.00
2022-09-23T14:12:14.292Z,1.00
2022-09-23T14:14:46.543Z,1.00
2022-09-23T14:17:19.900Z,1.00
2022-09-23T14:19:50.351Z,1.00
2022-09-23T14:22:31.071Z,1.00
2022-09-23T14:25:03.367Z,1.00
2022-09-23T14:27:36.177Z,1.00
2022-09-23T14:30:07.830Z,1.00
2022-09-23T14:32:37.796Z,1.00
2022-09-23T14:35:18.687Z,1.00
2022-09-23T14:38:06.003Z,1.00
2022-09-23T14:40:37.562Z,1.00
2022-09-23T14:43:16.388Z,1.00
2022-09-23T14:45:50.540Z,1.00
2022-09-23T14:48:25.335Z,1.00
2022-09-23T14:50:59.829Z,1.00
2022-09-23T14:53:40.684Z,1.00
2022-09-23T14:56:22.725Z,1.00
2022-09-23T14:58:55.657Z,1.00
2022-09-23T15:01:43.535Z,1.00
2022-09-23T15:04:16.909Z,1.00
2022-09-23T15:06:52.468Z,1.00
2022-09-23T15:09:29.272Z,1.00
2022-09-23T15:12:04.420Z,1.00
2022-09-23T15:14:40.713Z,1.00
2022-09-23T15:17:32.479Z,1.00
2022-09-23T15:20:05.485Z,1.00
2022-09-23T15:22:44.724Z,1.00
2022-09-23T15:25:23.083Z,1.00
2022-09-23T15:28:05.886Z,1.00
2022-09-23T15:30:38.468Z,1.00
2022-09-23T15:33:09.512Z,1.00
2022-09-23T15:35:39.486Z,1.00
2022-09-23T15:38:09.262Z,1.00
2022-09-23T15:40:42.102Z,1.00
2022-09-23T15:43:21.649Z,1.00
2022-09-23T15:45:53.634Z,1.00
2022-09-23T15:48:26.950Z,1.00
2022-09-23T15:50:59.147Z,1.00
2022-09-23T15:53:31.501Z,1.00
2022-09-23T15:56:04.400Z,1.00
2022-09-23T15:58:34.370Z,1.00
2022-09-23T16:01:04.302Z,1.00
2022-09-23T16:03:34.515Z,1.00
2022-09-23T16:06:06.209Z,1.00
2022-09-23T16:08:36.074Z,1.00
2022-09-23T16:11:08.781Z,1.00
2022-09-23T16:13:38.580Z,1.00
2022-09-23T16:16:08.821Z,1.00
2022-09-23T16:18:39.261Z,1.00
2022-09-23T16:21:09.428Z,1.00
2022-09-23T16:23:47.169Z,1.00
2022-09-23T16:26:22.275Z,1.00
2022-09-23T16:28:53.676Z,1.00
2022-09-23T16:31:25.321Z,1.00
2022-09-23T16:33:56.548Z,1.00
2022-09-23T16:36:28.869Z,1.00
2022-09-23T16:38:58.895Z,1.00
2022-09-23T16:41:33.781Z,1.00
2022-09-23T16:44:05.436Z,1.00
2022-09-23T16:46:35.688Z,1.00
2022-09-23T16:49:05.923Z,1.00
2022-09-23T16:51:38.069Z,1.00
2022-09-23T16:54:11.739Z,1.00
2022-09-23T16:56:46.383Z,1.00
2022-09-23T16:59:17.765Z,1.00
2022-09-23T17:02:00.103Z,1.00
2022-09-23T17:04:30.281Z,1.00
2022-09-23T17:07:00.970Z,1.00
2022-09-23T17:09:31.844Z,1.00
2022-09-23T17:12:11.803Z,1.00
2022-09-23T17:14:41.570Z,1.00
2022-09-23T17:17:11.281Z,1.00
2022-09-23T17:19:41.433Z,1.00
2022-09-23T17:22:11.225Z,1.00
2022-09-23T17:24:40.990Z,1.00
2022-09-23T17:27:13.552Z,1.00
2022-09-23T17:29:44.448Z,1.00
2022-09-23T17:32:14.172Z,1.00
2022-09-23T17:34:43.989Z,1.00
2022-09-23T17:37:13.698Z,1.00
2022-09-23T17:39:43.401Z,1.00
2022-09-23T17:42:18.166Z,1.00
2022-09-23T17:44:48.126Z,1.00
2022-09-23T17:47:17.903Z,1.00
2022-09-23T17:49:49.921Z,1.00
2022-09-23T17:52:19.849Z,1.00
2022-09-23T17:54:49.591Z,1.00
2022-09-23T17:57:21.923Z,1.00
2022-09-23T17:59:53.698Z,1.00
2022-09-23T18:02:23.580Z,1.00
2022-09-23T18:04:53.522Z,1.00
2022-09-23T18:07:23.255Z,1.00
2022-09-23T18:09:53.096Z,1.00
2022-09-23T18:12:25.415Z,1.00
2022-09-23T18:14:55.133Z,1.00
2022-09-23T18:17:24.837Z,1.00
2022-09-23T18:19:54.932Z,1.00
2022-09-23T18:22:24.664Z,1.00
2022-09-23T18:24:54.403Z,1.00
2022-09-23T18:27:26.760Z,1.00
2022-09-23T18:29:56.498Z,1.00
2022-09-23T18:32:26.275Z,1.00
2022-09-23T18:34:56.089Z,1.00
2022-09-23T18:37:25.969Z,1.00
2022-09-23T18:39:55.725Z,1.00
2022-09-23T18:42:28.054Z,1.00
2022-09-23T18:44:58.465Z,1.00
2022-09-23T18:47:40.681Z,1.00
2022-09-23T18:50:26.757Z,1.00
2022-09-23T18:52:56.462Z,1.00
2022-09-23T18:55:26.422Z,1.00
2022-09-23T18:57:59.703Z,1.00
2022-09-23T19:00:30.051Z,1.00
2022-09-23T19:03:00.663Z,1.00
2022-09-23T19:05:30.505Z,1.00
2022-09-23T19:08:00.321Z,1.00
2022-09-23T19:10:30.290Z,1.00
2022-09-23T19:13:02.592Z,1.00
2022-09-23T19:15:32.345Z,1.00
2022-09-23T19:18:02.072Z,1.00
2022-09-23T19:20:31.941Z,1.00
2022-09-23T19:23:01.659Z,1.00
2022-09-23T19:25:31.376Z,1.00
2022-09-23T19:28:05.466Z,1.00
2022-09-23T19:30:35.568Z,1.00
2022-09-23T19:33:05.665Z,1.00
2022-09-23T19:35:35.941Z,1.00
2022-09-23T19:38:06.819Z,1.00
2022-09-23T19:40:38.252Z,1.00
2022-09-23T19:43:10.593Z,1.00
2022-09-23T19:45:41.014Z,1.00
2022-09-23T19:48:10.816Z,1.00
2022-09-23T19:50:41.570Z,1.00
2022-09-23T19:53:11.364Z,1.00
2022-09-23T19:55:41.434Z,1.00
2022-09-23T19:58:14.391Z,1.00
2022-09-23T20:00:44.143Z,1.00
2022-09-23T20:03:13.866Z,1.00
2022-09-23T20:05:43.574Z,1.00
2022-09-23T20:08:13.294Z,1.00
2022-09-23T20:10:44.373Z,1.00
2022-09-23T20:13:17.385Z,1.00
2022-09-23T20:15:48.355Z,1.00
2022-09-23T20:18:18.500Z,1.00
2022-09-23T20:20:55.973Z,1.00
2022-09-23T20:23:25.807Z,1.00
2022-09-23T20:26:11.207Z,1.00
2022-09-23T20:28:43.596Z,1.00
2022-09-23T20:31:14.550Z,1.00
2022-09-23T20:33:46.169Z,1.00
2022-09-23T20:36:17.043Z,1.00
2022-09-23T20:38:46.877Z,1.00
2022-09-23T20:41:17.294Z,1.00
2022-09-23T20:43:50.331Z,1.00
2022-09-23T20:46:22.932Z,1.00
2022-09-23T20:48:54.112Z,1.00
2022-09-23T20:51:23.908Z,1.00
2022-09-23T20:53:54.444Z,1.00
2022-09-23T20:56:25.685Z,1.00
2022-09-23T20:59:01.580Z,1.00
2022-09-23T21:01:31.941Z,1.00
2022-09-23T21:04:03.963Z,1.00
2022-09-23T21:06:33.828Z,1.00
2022-09-23T21:09:03.622Z,1.00
2022-09-23T21:11:33.918Z,1.00
2022-09-23T21:14:06.550Z,1.00
2022-09-23T21:16:36.445Z,1.00
2022-09-23T21:19:07.924Z,1.10
2022-09-23T21:21:39.141Z,1.80
2022-09-23T21:24:40.023Z,3.30
2022-09-23T21:26:59.015Z,6.00
2022-09-23T21:29:31.314Z,5.60
2022-09-23T21:32:01.025Z,5.20
2022-09-23T21:34:32.304Z,6.20
2022-09-23T21:37:02.049Z,6.30
2022-09-23T21:39:31.783Z,5.90
2022-09-23T21:42:01.668Z,6.80
2022-09-23T21:44:34.014Z,7.10
2022-09-23T21:47:03.854Z,7.40
2022-09-23T21:49:33.626Z,7.70
2022-09-23T21:52:03.537Z,8.50
2022-09-23T21:54:33.242Z,8.90
2022-09-23T21:57:03.088Z,9.70
2022-09-23T21:59:35.469Z,10.10
2022-09-23T22:02:05.184Z,11.00
2022-09-23T22:04:35.001Z,10.90
2022-09-23T22:07:04.822Z,10.70
2022-09-23T22:09:34.548Z,11.30
2022-09-23T22:12:12.817Z,11.30
2022-09-23T22:14:46.126Z,11.70
2022-09-23T22:17:16.464Z,12.20
2022-09-23T22:19:47.481Z,12.70
2022-09-23T22:22:19.404Z,12.80
2022-09-23T22:24:50.262Z,13.10
2022-09-23T22:27:21.878Z,13.20
2022-09-23T22:30:06.711Z,13.60
2022-09-23T22:32:54.314Z,14.20
2022-09-23T22:35:25.023Z,14.60
2022-09-23T22:37:54.763Z,15.80
2022-09-23T22:40:24.534Z,15.90
2022-09-23T22:42:54.297Z,16.60
2022-09-23T22:45:27.047Z,16.60
2022-09-23T22:47:56.798Z,16.60
2022-09-23T22:50:26.593Z,16.60
2022-09-23T22:52:56.365Z,17.80
2022-09-23T22:55:26.207Z,18.30
2022-09-23T22:57:55.917Z,18.30
2022-09-23T23:00:29.069Z,18.50
2022-09-23T23:02:59.071Z,18.20
2022-09-23T23:05:28.787Z,19.40
2022-09-23T23:07:59.169Z,19.30
2022-09-23T23:10:28.907Z,19.30
2022-09-23T23:12:59.066Z,19.70
2022-09-23T23:15:31.412Z,20.20
2022-09-23T23:18:01.111Z,20.30
2022-09-23T23:20:31.071Z,20.60
2022-09-23T23:23:03.621Z,20.80
2022-09-23T23:25:33.851Z,20.70
2022-09-23T23:28:05.607Z,20.90
2022-09-23T23:30:38.582Z,22.40
2022-09-23T23:33:08.301Z,22.10
2022-09-23T23:35:38.030Z,22.60
2022-09-23T23:38:10.372Z,23.30
2022-09-23T23:40:40.326Z,23.50
2022-09-23T23:43:10.505Z,23.40
2022-09-23T23:45:43.686Z,23.30
2022-09-23T23:48:13.471Z,23.80
2022-09-23T23:50:43.210Z,23.30
2022-09-23T23:53:13.133Z,23.30
2022-09-23T23:55:42.872Z,24.30
2022-09-23T23:58:12.578Z,24.40
